Terminal Aerodrome Forecast
Issued by NWS

Home | Current Version | Previous Version | Text Only | Print | Product List | Glossary On
Versions: 1 2 3 4 5 6 7 8 9 10 11 12 13 14 15 16 17 18 19 20 21 22 23 24 25 26 27 28 29 30
000
FTUS43 KGRB 202300
TAFAUW
TAF
KAUW 202337Z 2100/2124 VRB03KT P6SM SCT035 BKN200
      TEMPO 2100/2101 BKN035
     FM210500 11003KT 5SM BR SCT030 BKN200
     FM210900 11003KT 4SM BR SCT035 BKN090 PROB30 2110/2114 2SM SHRA
      BR BKN035
     FM211600 14007KT 6SM HZ VCSH SCT035 BKN060
      TEMPO 2120/2124 2SM TSRA BKN020CB OVC035=

USA.gov is the U.S. government's official web portal to all federal, state and local government web resources and services.